Time;durP1;ratioP1;P1;durP2;ratioP2;P2;SDS_P1;SDS_P2;PMS_P1;PMS_P2;Temp;Humidity;BMP_temperature;BMP_pressure;BME280_temperature;BME280_humidity;BME280_pressure;Samples;Min_cycle;Max_cycle;Signal;HPM_P1;HPM_P2
2022/12/29 00:01:17;;;;;;;4.18;2.65;;;10.30;99.90;;;;;;5024091;28;20033;-45
2022/12/29 00:03:45;;;;;;;3.53;2.33;;;10.20;99.90;;;;;;5023171;28;20056;-50
2022/12/29 00:06:11;;;;;;;3.65;2.45;;;10.20;99.90;;;;;;5023812;28;20056;-49
2022/12/29 00:08:40;;;;;;;3.97;2.50;;;10.20;99.90;;;;;;5027923;28;20041;-50
2022/12/29 00:11:11;;;;;;;4.85;2.60;;;10.20;99.90;;;;;;5025833;28;20474;-48
2022/12/29 00:16:22;;;;;;;4.45;2.50;;;10.30;99.90;;;;;;5022755;28;20081;-50
2022/12/29 00:18:48;;;;;;;3.88;2.30;;;10.30;99.90;;;;;;5026543;28;20057;-46
2022/12/29 00:35:09;;;;;;;4.80;2.47;;;10.30;99.90;;;;;;5019435;28;20042;-51
2022/12/29 00:45:54;;;;;;;2.90;1.80;;;10.30;99.90;;;;;;5026497;28;20041;-50
2022/12/29 00:49:30;;;;;;;4.60;1.90;;;10.30;99.90;;;;;;5016736;28;20112;-45
2022/12/29 00:51:07;;;;;;;4.00;2.00;;;10.30;99.90;;;;;;5022140;28;20137;-44
2022/12/29 00:53:33;;;;;;;2.60;1.70;;;10.40;99.90;;;;;;5030740;28;20069;-50
2022/12/29 00:55:59;;;;;;;3.17;1.67;;;10.40;99.90;;;;;;5025941;28;20064;-49
2022/12/29 00:58:27;;;;;;;3.70;1.60;;;10.50;99.90;;;;;;5028807;28;20042;-49
2022/12/29 01:01:04;;;;;;;2.78;1.50;;;10.50;99.90;;;;;;5026919;28;20041;-52
2022/12/29 01:03:29;;;;;;;2.45;1.40;;;10.50;99.90;;;;;;5028572;28;20442;-47
2022/12/29 01:05:56;;;;;;;2.95;1.30;;;10.50;99.90;;;;;;5026027;28;20045;-46
2022/12/29 01:08:21;;;;;;;3.17;1.40;;;10.50;99.90;;;;;;5026830;28;20123;-47
2022/12/29 01:10:58;;;;;;;2.00;1.17;;;10.60;99.90;;;;;;5027751;28;20084;-45
2022/12/29 01:13:24;;;;;;;3.00;1.60;;;10.60;99.90;;;;;;5010826;28;20065;-46
2022/12/29 01:15:50;;;;;;;2.13;1.10;;;10.70;99.90;;;;;;5027844;28;20030;-49
2022/12/29 01:18:16;;;;;;;3.70;1.35;;;10.70;99.90;;;;;;5024102;28;20037;-49
2022/12/29 01:20:42;;;;;;;2.65;1.30;;;10.70;99.90;;;;;;5025815;28;20479;-49
2022/12/29 01:23:07;;;;;;;2.10;0.82;;;10.70;99.90;;;;;;5025170;28;20495;-44
2022/12/29 01:25:33;;;;;;;3.03;1.15;;;10.80;99.90;;;;;;5025328;28;20045;-47
2022/12/29 01:27:59;;;;;;;1.95;0.90;;;10.80;99.90;;;;;;5027846;28;20124;-46
2022/12/29 01:30:24;;;;;;;3.78;1.20;;;10.80;99.90;;;;;;5007612;28;20116;-50
2022/12/29 01:32:50;;;;;;;1.60;0.90;;;10.80;99.90;;;;;;5020443;28;20483;-48
2022/12/29 01:35:16;;;;;;;2.47;1.13;;;10.80;99.90;;;;;;5023164;28;20047;-50
2022/12/29 01:37:41;;;;;;;2.47;1.10;;;10.80;99.90;;;;;;5024023;28;20037;-44
2022/12/29 01:40:08;;;;;;;3.30;0.90;;;10.80;99.90;;;;;;5022169;28;20598;-48
2022/12/29 01:42:33;;;;;;;1.92;0.80;;;10.70;99.90;;;;;;5023194;28;20041;-48
2022/12/29 01:45:12;;;;;;;1.67;0.70;;;10.70;99.90;;;;;;5022037;28;20040;-48
2022/12/29 01:47:43;;;;;;;5.35;1.50;;;10.80;99.90;;;;;;5021384;28;20052;-49
2022/12/29 01:50:39;;;;;;;1.73;0.70;;;10.80;99.90;;;;;;5022369;28;20057;-48
2022/12/29 01:53:16;;;;;;;1.40;0.80;;;10.80;99.90;;;;;;5018675;28;20064;-47
2022/12/29 01:55:50;;;;;;;1.95;0.80;;;10.80;99.90;;;;;;5050149;28;20080;-46
2022/12/29 01:58:20;;;;;;;2.42;0.75;;;10.90;99.90;;;;;;5017724;28;20491;-45
2022/12/29 02:00:46;;;;;;;2.85;1.27;;;10.90;99.90;;;;;;5024746;28;21125;-50
2022/12/29 02:03:12;;;;;;;2.38;1.00;;;10.90;99.90;;;;;;5024368;28;20084;-47
2022/12/29 02:05:59;;;;;;;3.15;1.30;;;10.90;99.90;;;;;;5026213;28;20046;-46
2022/12/29 02:08:28;;;;;;;1.48;0.75;;;10.90;99.90;;;;;;5021720;28;20076;-45
2022/12/29 02:10:55;;;;;;;2.15;0.63;;;10.90;99.90;;;;;;5025451;28;20054;-50
2022/12/29 02:13:23;;;;;;;2.72;0.75;;;10.90;99.90;;;;;;5025070;28;20037;-47
2022/12/29 02:16:14;;;;;;;2.80;0.90;;;10.90;99.90;;;;;;5025684;28;20569;-47
2022/12/29 02:19:18;;;;;;;2.22;1.00;;;10.80;99.90;;;;;;5024291;28;20076;-49
2022/12/29 02:22:03;;;;;;;3.15;0.80;;;10.80;99.90;;;;;;5024631;28;20132;-45
2022/12/29 02:24:57;;;;;;;3.70;1.45;;;10.70;99.90;;;;;;5024667;28;20091;-51
2022/12/29 02:27:31;;;;;;;1.48;0.90;;;10.70;99.90;;;;;;5021402;28;20045;-49
2022/12/29 02:30:18;;;;;;;2.05;0.70;;;10.70;99.90;;;;;;5023964;28;20045;-47
2022/12/29 02:32:54;;;;;;;3.10;0.98;;;10.60;99.90;;;;;;5021298;28;20045;-50
2022/12/29 02:35:38;;;;;;;2.42;0.90;;;10.60;99.90;;;;;;5023758;28;20513;-49
2022/12/29 02:38:35;;;;;;;1.85;0.60;;;10.60;99.90;;;;;;5024436;28;20041;-46
2022/12/29 02:41:22;;;;;;;2.35;0.80;;;10.60;99.90;;;;;;5022420;28;20120;-41
2022/12/29 02:43:51;;;;;;;1.48;0.60;;;10.60;99.90;;;;;;5023217;28;20092;-49
2022/12/29 02:46:36;;;;;;;1.08;0.50;;;10.60;99.90;;;;;;5022016;28;20033;-45
2022/12/29 02:49:15;;;;;;;1.33;0.70;;;10.50;99.90;;;;;;5025759;28;20037;-49
2022/12/29 02:51:58;;;;;;;1.45;0.52;;;10.50;99.90;;;;;;5024647;28;20053;-45
2022/12/29 02:54:42;;;;;;;2.65;0.80;;;10.50;99.90;;;;;;5026918;28;20061;-44
2022/12/29 02:57:14;;;;;;;1.50;0.60;;;10.40;99.90;;;;;;5017166;28;20048;-46
2022/12/29 02:59:41;;;;;;;1.75;0.77;;;10.40;99.90;;;;;;5020142;28;20124;-47
2022/12/29 03:02:23;;;;;;;1.55;0.63;;;10.40;99.90;;;;;;5023363;28;20064;-50
2022/12/29 03:05:07;;;;;;;1.73;0.77;;;10.40;99.90;;;;;;5024308;28;20040;-48
2022/12/29 03:07:48;;;;;;;2.17;0.60;;;10.40;99.90;;;;;;5017647;28;20569;-47
2022/12/29 03:10:19;;;;;;;1.65;0.80;;;10.40;99.90;;;;;;5024175;28;20068;-44
2022/12/29 03:16:01;;;;;;;;;;;10.40;99.90;;;;;;5022206;28;20049;-48
2022/12/29 03:18:51;;;;;;;1.25;0.50;;;10.50;99.90;;;;;;5020301;28;19925;-47
2022/12/29 03:24:20;;;;;;;2.20;0.80;;;10.60;99.90;;;;;;5028668;28;20049;-39
2022/12/29 03:26:47;;;;;;;1.88;0.68;;;10.60;99.90;;;;;;5030675;28;20440;-42
2022/12/29 03:29:16;;;;;;;2.30;0.63;;;10.60;99.90;;;;;;5029577;28;20049;-46
2022/12/29 03:31:43;;;;;;;1.92;0.73;;;10.60;99.90;;;;;;5030085;28;20041;-49
2022/12/29 03:34:10;;;;;;;5.82;1.48;;;10.60;99.90;;;;;;5025610;28;20585;-47
2022/12/29 03:36:44;;;;;;;2.42;0.63;;;10.60;99.90;;;;;;5028618;28;20041;-49
2022/12/29 03:39:13;;;;;;;3.40;0.65;;;10.60;99.90;;;;;;5025753;28;20120;-51
2022/12/29 03:41:44;;;;;;;5.32;0.95;;;10.60;99.90;;;;;;5024962;28;20037;-47
2022/12/29 03:44:11;;;;;;;4.45;0.70;;;10.60;99.90;;;;;;5024976;28;20116;-50
2022/12/29 03:46:36;;;;;;;4.97;1.10;;;10.40;99.90;;;;;;5025165;28;20041;-51
2022/12/29 03:49:02;;;;;;;3.08;0.70;;;10.30;99.90;;;;;;5025567;28;20715;-50
2022/12/29 03:51:28;;;;;;;2.88;0.73;;;10.20;99.90;;;;;;5023053;28;20046;-48
2022/12/29 03:53:53;;;;;;;4.03;0.60;;;10.10;99.90;;;;;;5031502;28;20041;-45
2022/12/29 03:56:19;;;;;;;1.98;0.60;;;10.10;99.90;;;;;;5023033;28;20105;-51
2022/12/29 03:58:45;;;;;;;2.72;0.45;;;10.10;99.90;;;;;;5023629;28;20033;-46
2022/12/29 04:01:10;;;;;;;1.67;0.32;;;10.10;99.90;;;;;;5024753;28;20045;-51
2022/12/29 04:03:36;;;;;;;1.30;0.35;;;10.10;99.90;;;;;;5027220;28;20037;-50
2022/12/29 04:06:02;;;;;;;2.40;0.57;;;9.90;99.90;;;;;;5028768;28;20045;-49
2022/12/29 04:08:28;;;;;;;4.80;1.55;;;9.90;99.90;;;;;;5030130;28;20483;-49
2022/12/29 04:10:53;;;;;;;3.63;0.65;;;9.90;99.90;;;;;;5023371;28;20045;-49
2022/12/29 04:13:19;;;;;;;3.53;0.60;;;9.90;99.90;;;;;;5028530;28;20083;-51
2022/12/29 04:15:45;;;;;;;3.72;0.50;;;9.90;99.90;;;;;;5028671;28;20505;-47
2022/12/29 04:18:12;;;;;;;2.05;0.38;;;10.00;99.90;;;;;;5030639;28;20518;-48
2022/12/29 04:23:22;;;;;;;2.65;1.30;;;10.10;99.90;;;;;;5025410;28;20048;-48
2022/12/29 04:25:48;;;;;;;3.30;0.70;;;10.10;99.90;;;;;;5030587;28;20091;-48
2022/12/29 04:28:15;;;;;;;2.20;0.50;;;10.10;99.90;;;;;;5026505;28;20510;-50
2022/12/29 04:30:41;;;;;;;5.93;0.60;;;10.10;99.90;;;;;;5024407;28;20104;-50
2022/12/29 04:33:06;;;;;;;3.65;0.70;;;10.10;99.90;;;;;;5029020;28;20092;-48
2022/12/29 04:35:32;;;;;;;4.25;0.45;;;10.10;99.90;;;;;;5028942;28;20565;-49
2022/12/29 04:37:58;;;;;;;2.75;0.50;;;10.10;99.90;;;;;;5026514;28;20041;-47
2022/12/29 04:40:24;;;;;;;4.90;0.60;;;10.10;99.90;;;;;;5028940;28;20034;-43
2022/12/29 04:42:50;;;;;;;3.22;0.50;;;10.10;99.90;;;;;;5027628;28;20077;-51
2022/12/29 04:45:16;;;;;;;4.90;0.50;;;10.10;99.90;;;;;;5027412;28;20073;-46
2022/12/29 04:47:42;;;;;;;5.85;0.85;;;10.20;99.90;;;;;;5028663;28;20395;-50
2022/12/29 04:50:08;;;;;;;4.60;0.68;;;10.10;99.90;;;;;;5027300;28;20064;-48
2022/12/29 04:52:34;;;;;;;3.20;0.60;;;10.10;99.90;;;;;;5026258;28;20560;-51
2022/12/29 04:55:00;;;;;;;5.65;0.32;;;10.10;99.90;;;;;;5026719;28;20049;-51
2022/12/29 04:57:26;;;;;;;2.90;0.35;;;10.10;99.90;;;;;;5027541;28;20515;-51
2022/12/29 04:59:52;;;;;;;4.43;0.47;;;10.00;99.90;;;;;;5027180;28;20102;-51
2022/12/29 05:02:17;;;;;;;5.82;0.50;;;10.00;99.90;;;;;;5022592;28;20539;-46
2022/12/29 05:04:43;;;;;;;2.17;0.30;;;10.10;99.90;;;;;;5026098;28;20041;-47
2022/12/29 05:07:09;;;;;;;2.72;0.52;;;10.10;99.90;;;;;;5025420;28;20082;-45
2022/12/29 05:09:35;;;;;;;3.95;0.38;;;10.00;99.90;;;;;;5019185;28;20047;-43
2022/12/29 05:12:00;;;;;;;3.17;0.35;;;9.90;99.90;;;;;;5028867;28;20486;-49
2022/12/29 05:14:26;;;;;;;3.08;0.40;;;9.90;99.90;;;;;;5028162;28;21507;-49
2022/12/29 05:16:52;;;;;;;4.68;1.13;;;9.90;99.90;;;;;;5025838;28;20029;-50
2022/12/29 05:19:18;;;;;;;1.08;0.30;;;9.80;99.90;;;;;;5022167;28;20467;-46
2022/12/29 05:21:44;;;;;;;2.25;0.45;;;9.90;99.90;;;;;;5023853;28;20495;-47
2022/12/29 05:24:10;;;;;;;4.30;0.60;;;9.90;99.90;;;;;;5029655;28;20053;-42
2022/12/29 05:26:35;;;;;;;4.82;0.82;;;9.90;99.90;;;;;;5026071;28;20042;-47
2022/12/29 05:29:01;;;;;;;3.67;0.73;;;9.90;99.90;;;;;;5024917;28;20498;-51
2022/12/29 05:31:27;;;;;;;3.25;0.68;;;9.90;99.90;;;;;;5025919;28;20091;-43
2022/12/29 05:33:53;;;;;;;4.45;0.50;;;10.00;99.90;;;;;;5024693;28;20050;-49
2022/12/29 05:36:19;;;;;;;4.18;0.75;;;10.00;99.90;;;;;;5026294;28;20449;-48
2022/12/29 05:38:44;;;;;;;2.10;0.52;;;10.00;99.90;;;;;;5027691;28;20033;-49
2022/12/29 05:41:11;;;;;;;3.92;0.40;;;9.90;99.90;;;;;;5021037;28;20045;-50
2022/12/29 05:43:36;;;;;;;2.15;0.98;;;9.80;99.90;;;;;;5026719;28;20034;-50
2022/12/29 05:46:03;;;;;;;7.65;0.52;;;9.80;99.90;;;;;;5025899;28;20059;-50
2022/12/29 05:48:29;;;;;;;5.55;0.73;;;9.80;99.90;;;;;;5027356;28;20040;-45
2022/12/29 05:50:54;;;;;;;4.72;0.80;;;9.80;99.90;;;;;;5022514;28;20437;-50
2022/12/29 05:53:20;;;;;;;10.13;0.57;;;9.80;99.90;;;;;;5028893;28;20049;-49
2022/12/29 05:55:49;;;;;;;5.95;0.60;;;9.80;99.90;;;;;;5022966;28;20953;-45
2022/12/29 05:58:18;;;;;;;5.57;1.45;;;9.80;99.90;;;;;;5027546;28;20047;-47
2022/12/29 06:00:44;;;;;;;4.65;0.50;;;9.70;99.90;;;;;;5025940;28;20042;-46
2022/12/29 06:03:10;;;;;;;6.95;2.15;;;9.70;99.90;;;;;;5022760;28;20486;-48
2022/12/29 06:05:36;;;;;;;2.35;0.73;;;9.70;99.90;;;;;;5025137;28;20069;-45
2022/12/29 06:08:02;;;;;;;5.40;0.70;;;9.70;99.90;;;;;;5025110;28;20038;-46
2022/12/29 06:10:28;;;;;;;5.75;0.60;;;9.70;99.90;;;;;;5025936;28;20048;-47
2022/12/29 06:12:54;;;;;;;4.07;0.60;;;9.70;99.90;;;;;;5025825;28;20431;-47
2022/12/29 06:15:19;;;;;;;3.80;0.40;;;9.70;99.90;;;;;;5027260;28;20106;-50
2022/12/29 06:17:46;;;;;;;6.63;1.45;;;9.70;99.90;;;;;;5027421;28;20133;-46
2022/12/29 06:20:11;;;;;;;7.28;1.02;;;9.70;99.90;;;;;;5027232;28;20053;-49
2022/12/29 06:22:37;;;;;;;3.53;0.43;;;9.70;99.90;;;;;;5023861;28;20390;-51
2022/12/29 06:25:05;;;;;;;1.50;0.32;;;9.70;99.90;;;;;;5022688;28;20139;-50
2022/12/29 06:27:31;;;;;;;5.03;0.57;;;9.70;99.90;;;;;;5024482;28;20542;-49
2022/12/29 06:29:57;;;;;;;4.15;0.73;;;9.70;99.90;;;;;;5023712;28;20044;-49
2022/12/29 06:32:23;;;;;;;5.35;0.40;;;9.70;99.90;;;;;;5021186;28;20037;-49
2022/12/29 06:34:48;;;;;;;4.32;0.47;;;9.70;99.90;;;;;;5023957;28;20132;-47
2022/12/29 06:37:14;;;;;;;3.40;0.40;;;9.70;99.90;;;;;;5022771;28;20092;-45
2022/12/29 06:39:40;;;;;;;4.90;0.75;;;9.70;99.90;;;;;;5024497;28;20586;-47
2022/12/29 06:42:06;;;;;;;5.60;0.55;;;9.80;99.90;;;;;;5008077;28;20506;-47
2022/12/29 06:44:32;;;;;;;10.35;0.95;;;9.80;99.90;;;;;;5021578;28;20041;-46
2022/12/29 06:46:57;;;;;;;5.80;0.93;;;9.80;99.90;;;;;;5022725;28;20462;-49
2022/12/29 06:49:23;;;;;;;6.05;0.68;;;9.80;99.90;;;;;;5025651;28;20053;-49
2022/12/29 06:51:49;;;;;;;8.80;1.33;;;9.80;99.90;;;;;;5024125;28;20064;-50
2022/12/29 06:54:14;;;;;;;7.70;0.70;;;9.80;99.90;;;;;;5023616;28;20510;-48
2022/12/29 06:56:40;;;;;;;10.48;1.25;;;9.70;99.90;;;;;;5023287;28;20029;-44
2022/12/29 06:59:06;;;;;;;6.90;0.63;;;9.80;99.90;;;;;;5021004;28;20033;-47
2022/12/29 07:01:32;;;;;;;5.03;0.75;;;9.70;99.90;;;;;;5021906;28;20037;-48
2022/12/29 07:03:57;;;;;;;6.07;0.60;;;9.70;99.90;;;;;;5024071;28;20037;-49
2022/12/29 07:06:23;;;;;;;5.05;0.70;;;9.60;99.90;;;;;;5023727;28;20534;-50
2022/12/29 07:08:49;;;;;;;6.90;0.70;;;9.60;99.90;;;;;;5025525;28;20081;-48
2022/12/29 07:11:15;;;;;;;5.90;0.75;;;9.60;99.90;;;;;;5027769;28;20076;-48
2022/12/29 07:13:41;;;;;;;5.55;0.80;;;9.60;99.90;;;;;;5024124;28;20030;-50
2022/12/29 07:16:08;;;;;;;3.55;0.88;;;9.60;99.90;;;;;;5026366;28;20128;-51
2022/12/29 07:18:35;;;;;;;4.25;0.55;;;9.60;99.90;;;;;;5026559;28;20045;-46
2022/12/29 07:21:01;;;;;;;4.88;0.52;;;9.60;99.90;;;;;;5024644;28;20116;-47
2022/12/29 07:23:27;;;;;;;10.15;1.35;;;9.60;99.90;;;;;;5017881;28;20034;-49
2022/12/29 07:26:05;;;;;;;8.15;0.88;;;9.60;99.90;;;;;;5020268;28;20045;-51
2022/12/29 07:28:32;;;;;;;4.65;0.82;;;9.60;99.90;;;;;;5025473;28;20045;-41
2022/12/29 07:30:58;;;;;;;6.90;0.73;;;9.60;99.90;;;;;;5024653;28;20116;-48
2022/12/29 07:33:24;;;;;;;5.55;0.70;;;9.70;99.90;;;;;;5023069;28;20081;-47
2022/12/29 07:35:51;;;;;;;5.28;1.08;;;9.80;99.90;;;;;;5022575;28;20077;-46
2022/12/29 07:38:17;;;;;;;5.47;0.90;;;9.80;99.90;;;;;;5024223;28;20041;-50
2022/12/29 07:40:43;;;;;;;7.70;0.80;;;9.70;99.90;;;;;;5021326;28;20057;-51
2022/12/29 07:43:09;;;;;;;7.20;0.60;;;9.70;99.90;;;;;;5024155;28;20160;-51
2022/12/29 07:45:35;;;;;;;7.07;0.80;;;9.70;99.90;;;;;;5025417;28;20555;-46
2022/12/29 07:48:02;;;;;;;10.63;0.85;;;9.60;99.90;;;;;;5023746;28;20037;-50
2022/12/29 07:50:28;;;;;;;4.95;0.85;;;9.70;99.90;;;;;;5023326;28;20514;-49
2022/12/29 07:52:54;;;;;;;6.07;0.77;;;9.60;99.90;;;;;;5023834;28;20111;-50
2022/12/29 07:55:19;;;;;;;4.63;0.70;;;9.60;99.90;;;;;;5023624;28;20037;-41
2022/12/29 07:57:45;;;;;;;4.35;0.43;;;9.60;99.90;;;;;;5020843;28;20030;-50
2022/12/29 08:00:12;;;;;;;4.28;0.63;;;9.60;99.90;;;;;;5007890;28;20033;-45
2022/12/29 08:02:38;;;;;;;5.55;0.93;;;9.50;99.90;;;;;;5018415;28;20034;-49
2022/12/29 08:05:04;;;;;;;9.65;1.38;;;9.60;99.90;;;;;;5018163;28;20503;-45
2022/12/29 08:07:29;;;;;;;8.13;0.63;;;9.60;99.90;;;;;;5036185;28;20526;-48
2022/12/29 08:09:55;;;;;;;13.68;1.13;;;9.60;99.90;;;;;;5023784;28;20091;-44
2022/12/29 08:12:21;;;;;;;6.80;0.60;;;9.60;99.90;;;;;;5027749;28;20053;-45
2022/12/29 08:14:47;;;;;;;7.75;0.90;;;9.60;99.90;;;;;;5022239;28;20498;-47
2022/12/29 08:17:12;;;;;;;6.15;0.80;;;9.70;99.90;;;;;;5026896;28;20038;-46
2022/12/29 08:19:38;;;;;;;11.50;2.13;;;9.70;99.90;;;;;;5026485;28;20115;-50
2022/12/29 08:22:04;;;;;;;5.10;0.95;;;9.80;99.90;;;;;;5026174;28;20156;-47
2022/12/29 08:24:30;;;;;;;6.50;0.43;;;9.80;99.90;;;;;;5027355;28;20046;-40
2022/12/29 08:26:55;;;;;;;4.95;1.20;;;9.70;99.90;;;;;;5026760;28;20486;-46
2022/12/29 08:29:21;;;;;;;4.82;0.68;;;9.70;99.90;;;;;;5020585;28;20044;-47
2022/12/29 08:31:47;;;;;;;11.48;0.95;;;9.70;99.90;;;;;;5029848;28;20120;-49
2022/12/29 08:34:14;;;;;;;3.25;0.57;;;9.70;99.90;;;;;;5028202;28;20057;-48
2022/12/29 08:36:39;;;;;;;5.47;0.80;;;9.80;99.90;;;;;;5023643;28;20038;-49
2022/12/29 08:39:05;;;;;;;5.50;0.80;;;9.70;99.90;;;;;;5028296;28;20043;-45
2022/12/29 08:41:31;;;;;;;9.60;1.45;;;9.80;99.90;;;;;;5024064;28;20132;-49
2022/12/29 08:43:56;;;;;;;3.00;0.50;;;9.70;99.90;;;;;;5027378;28;20033;-45
2022/12/29 08:46:22;;;;;;;10.25;0.75;;;9.70;99.90;;;;;;5027713;28;20450;-49
2022/12/29 08:48:48;;;;;;;4.88;0.73;;;9.80;99.90;;;;;;5026545;28;20029;-48
2022/12/29 08:51:14;;;;;;;7.22;0.77;;;9.80;99.90;;;;;;5024974;28;20041;-50
2022/12/29 08:53:39;;;;;;;4.65;0.95;;;9.80;99.90;;;;;;5024633;28;20064;-48
2022/12/29 08:56:06;;;;;;;6.45;1.10;;;9.80;99.90;;;;;;5021884;28;20464;-47
2022/12/29 08:58:32;;;;;;;7.47;0.77;;;9.80;99.90;;;;;;5026787;28;20037;-51
2022/12/29 09:00:58;;;;;;;6.35;0.70;;;9.70;99.90;;;;;;5028491;28;20132;-48
2022/12/29 09:03:24;;;;;;;9.50;1.25;;;9.60;99.90;;;;;;5032746;28;20495;-51
2022/12/29 09:05:51;;;;;;;10.55;0.88;;;9.50;99.90;;;;;;5026926;28;20496;-45
2022/12/29 09:08:17;;;;;;;3.83;1.15;;;9.40;99.90;;;;;;5026811;28;20033;-51
2022/12/29 09:10:43;;;;;;;5.22;0.80;;;9.50;99.90;;;;;;5026482;28;20431;-46
2022/12/29 09:13:10;;;;;;;9.23;1.20;;;9.50;99.90;;;;;;5025632;28;20037;-45
2022/12/29 09:15:36;;;;;;;7.63;0.93;;;9.50;99.90;;;;;;5023109;28;20121;-48
2022/12/29 09:18:02;;;;;;;6.72;1.05;;;9.40;99.90;;;;;;5020938;28;20119;-50
2022/12/29 09:20:29;;;;;;;6.68;0.90;;;9.40;99.90;;;;;;5026588;28;20033;-45
2022/12/29 09:22:54;;;;;;;6.55;0.98;;;9.40;99.90;;;;;;5017565;28;20041;-49
2022/12/29 09:25:23;;;;;;;5.93;1.05;;;9.40;99.90;;;;;;5023878;28;20409;-46
2022/12/29 09:27:49;;;;;;;7.25;0.88;;;9.40;99.90;;;;;;5029671;28;20048;-46
2022/12/29 09:30:14;;;;;;;9.75;1.33;;;9.40;99.90;;;;;;5030075;28;20726;-49
2022/12/29 09:32:41;;;;;;;8.45;1.00;;;9.40;99.90;;;;;;5026077;28;20458;-41
2022/12/29 09:35:07;;;;;;;3.97;0.75;;;9.40;99.90;;;;;;5025146;28;20049;-50
2022/12/29 09:37:32;;;;;;;5.03;1.08;;;9.40;99.90;;;;;;5022883;28;20474;-49
2022/12/29 09:39:58;;;;;;;8.88;0.98;;;9.40;99.90;;;;;;5023138;28;20057;-48
2022/12/29 09:43:13;;;;;;;6.63;0.75;;;9.40;99.90;;;;;;5023714;28;20045;-46
2022/12/29 09:46:06;;;;;;;6.93;0.90;;;9.40;99.90;;;;;;4999034;28;20080;-51
2022/12/29 09:48:38;;;;;;;6.38;1.30;;;9.40;99.90;;;;;;5017307;28;20053;-50
2022/12/29 09:51:08;;;;;;;;;;;9.50;99.90;;;;;;5020471;28;20058;-46
2022/12/29 09:53:46;;;;;;;6.07;0.98;;;9.50;99.90;;;;;;5024240;28;19921;-46
2022/12/29 09:56:21;;;;;;;8.63;1.77;;;9.60;99.90;;;;;;5028039;28;20037;-44
2022/12/29 09:58:57;;;;;;;6.57;0.80;;;9.60;99.90;;;;;;5027847;28;20049;-48
2022/12/29 10:01:41;;;;;;;4.97;0.60;;;9.50;99.90;;;;;;5021092;28;20514;-50
2022/12/29 10:04:07;;;;;;;3.75;0.70;;;9.50;99.90;;;;;;5025460;28;20132;-42
2022/12/29 10:06:46;;;;;;;5.55;0.70;;;9.50;99.90;;;;;;5023198;28;20037;-48
2022/12/29 10:09:33;;;;;;;8.98;1.00;;;9.50;99.90;;;;;;5021632;28;20051;-43
2022/12/29 10:12:27;;;;;;;11.73;0.95;;;9.40;99.90;;;;;;5020640;28;20041;-45
2022/12/29 10:15:22;;;;;;;7.03;0.93;;;9.30;99.90;;;;;;5023329;28;20080;-40
2022/12/29 10:18:00;;;;;;;3.03;0.50;;;9.30;99.90;;;;;;5023821;28;20083;-46
2022/12/29 10:20:45;;;;;;;8.50;1.00;;;9.30;99.90;;;;;;5022173;28;20064;-41
2022/12/29 10:23:26;;;;;;;4.15;0.63;;;9.40;99.90;;;;;;5021994;28;20774;-46
2022/12/29 10:25:56;;;;;;;4.57;0.80;;;9.40;99.90;;;;;;5011698;28;20503;-48
2022/12/29 10:28:29;;;;;;;4.55;0.63;;;9.40;99.90;;;;;;5016778;28;20044;-41
2022/12/29 10:30:58;;;;;;;4.00;0.93;;;9.40;99.90;;;;;;5025045;28;20499;-43
2022/12/29 10:33:33;;;;;;;1.83;0.40;;;9.40;99.90;;;;;;5027796;28;20072;-50
2022/12/29 10:36:29;;;;;;;3.25;0.63;;;9.50;99.90;;;;;;5022734;28;20052;-48
2022/12/29 10:39:14;;;;;;;4.00;0.75;;;9.40;99.90;;;;;;5019583;28;20056;-47
2022/12/29 10:41:59;;;;;;;4.82;0.93;;;9.50;99.90;;;;;;5019993;28;20046;-40
2022/12/29 10:44:29;;;;;;;5.32;1.10;;;9.50;99.90;;;;;;5027189;28;20120;-50
2022/12/29 10:47:04;;;;;;;5.72;0.50;;;9.40;99.90;;;;;;5019937;28;20527;-46
2022/12/29 10:49:31;;;;;;;6.75;0.70;;;9.40;99.90;;;;;;5013102;28;20062;-49
2022/12/29 10:52:02;;;;;;;5.53;0.95;;;9.40;99.90;;;;;;5017418;28;20253;-46
2022/12/29 10:54:45;;;;;;;3.78;0.85;;;9.30;99.90;;;;;;5011494;28;20034;-49
2022/12/29 10:57:39;;;;;;;6.35;0.80;;;9.30;99.90;;;;;;5016648;28;20073;-44
2022/12/29 11:00:16;;;;;;;6.03;0.82;;;9.30;99.90;;;;;;5017200;28;20662;-50
2022/12/29 11:03:03;;;;;;;6.05;0.70;;;9.40;99.90;;;;;;5016714;28;20140;-43
2022/12/29 11:05:36;;;;;;;4.28;0.90;;;9.40;99.90;;;;;;5019994;28;20052;-46
2022/12/29 11:08:11;;;;;;;5.43;1.00;;;9.40;99.90;;;;;;5021334;28;20041;-46
2022/12/29 11:10:42;;;;;;;5.85;0.80;;;9.40;99.90;;;;;;5023100;28;20076;-44
2022/12/29 11:13:15;;;;;;;7.95;0.95;;;9.40;99.90;;;;;;5014969;28;21552;-43
2022/12/29 11:15:42;;;;;;;;;;;9.40;99.90;;;;;;5015948;28;20418;-44
2022/12/29 11:18:21;;;;;;;7.95;1.50;;;9.30;99.90;;;;;;5018151;28;19921;-43
2022/12/29 11:20:48;;;;;;;11.77;1.20;;;9.20;99.90;;;;;;5022457;28;20044;-44
2022/12/29 11:23:25;;;;;;;7.82;1.20;;;9.20;99.90;;;;;;5021435;28;20112;-50
2022/12/29 11:26:10;;;;;;;11.40;1.30;;;9.20;99.90;;;;;;5016337;28;20782;-48
2022/12/29 11:28:37;;;;;;;8.52;1.25;;;9.40;99.90;;;;;;5014697;28;20041;-48
2022/12/29 11:31:05;;;;;;;5.85;1.13;;;9.40;99.90;;;;;;5020056;28;20096;-49
2022/12/29 11:33:32;;;;;;;7.82;1.83;;;9.40;99.90;;;;;;5025667;28;20448;-47
2022/12/29 11:36:04;;;;;;;10.20;1.20;;;9.50;99.90;;;;;;5023365;28;20045;-52
2022/12/29 11:38:56;;;;;;;10.67;2.53;;;9.70;99.90;;;;;;5024013;28;20552;-48
2022/12/29 11:41:28;;;;;;;7.72;1.50;;;10.20;99.90;;;;;;5019137;28;20050;-44
2022/12/29 11:43:57;;;;;;;11.23;1.10;;;10.30;99.90;;;;;;5026298;28;20038;-52
2022/12/29 11:46:29;;;;;;;7.95;1.13;;;10.20;99.90;;;;;;5022050;28;20041;-49
2022/12/29 11:48:59;;;;;;;17.33;2.00;;;10.20;99.90;;;;;;5029487;28;20037;-49
2022/12/29 11:51:39;;;;;;;10.13;1.40;;;10.10;99.90;;;;;;5023122;28;20042;-47
2022/12/29 11:54:05;;;;;;;10.57;1.88;;;10.30;99.90;;;;;;5027761;28;20501;-51
2022/12/29 11:56:41;;;;;;;9.63;2.45;;;10.30;99.90;;;;;;5026754;28;20037;-48
2022/12/29 11:59:29;;;;;;;12.90;1.42;;;10.20;99.90;;;;;;5024314;28;20372;-49
2022/12/29 12:01:58;;;;;;;9.63;2.83;;;10.10;99.90;;;;;;5025212;28;20499;-44
2022/12/29 12:04:28;;;;;;;10.27;1.35;;;9.90;99.90;;;;;;5024642;28;20049;-53
2022/12/29 12:07:19;;;;;;;5.03;0.80;;;9.80;99.90;;;;;;5026349;28;20057;-45
2022/12/29 12:10:00;;;;;;;4.95;1.10;;;9.60;99.90;;;;;;5025309;28;20030;-51
2022/12/29 12:13:12;;;;;;;7.22;0.70;;;9.40;99.90;;;;;;5024819;28;20048;-44
2022/12/29 12:15:46;;;;;;;9.45;1.05;;;9.20;99.90;;;;;;4987468;28;20403;-43
2022/12/29 12:18:35;;;;;;;8.40;1.90;;;9.10;99.90;;;;;;5023956;28;20128;-44
2022/12/29 12:21:13;;;;;;;9.63;1.65;;;9.10;99.90;;;;;;5020530;28;20581;-52
2022/12/29 12:24:00;;;;;;;8.60;2.03;;;9.20;99.90;;;;;;5021539;28;20509;-51
2022/12/29 12:26:37;;;;;;;13.27;1.55;;;9.30;99.90;;;;;;5024909;28;20042;-44
2022/12/29 12:29:30;;;;;;;6.60;0.90;;;9.50;99.90;;;;;;5023831;28;20080;-50
2022/12/29 12:32:01;;;;;;;9.60;2.15;;;9.60;99.90;;;;;;5030904;28;20045;-48
2022/12/29 12:34:37;;;;;;;9.35;0.93;;;9.50;99.90;;;;;;5027739;28;20079;-51
2022/12/29 12:37:19;;;;;;;8.88;1.33;;;9.50;99.90;;;;;;5022620;28;20502;-48
2022/12/29 12:40:03;;;;;;;12.63;1.90;;;9.40;99.90;;;;;;5022835;28;20495;-50
2022/12/29 12:42:46;;;;;;;17.25;2.20;;;9.40;99.90;;;;;;5025208;28;20434;-42
2022/12/29 12:45:30;;;;;;;15.00;2.15;;;9.40;99.90;;;;;;5017786;28;20882;-47
2022/12/29 12:47:59;;;;;;;13.10;2.00;;;9.40;99.90;;;;;;5026156;28;20049;-49
2022/12/29 12:50:36;;;;;;;10.25;1.55;;;9.30;99.90;;;;;;5017875;28;20514;-49
2022/12/29 12:53:29;;;;;;;11.13;1.73;;;9.30;99.90;;;;;;5020562;28;20152;-43
2022/12/29 12:56:03;;;;;;;13.85;1.88;;;9.30;99.90;;;;;;5020930;28;20041;-46
2022/12/29 12:59:18;;;;;;;11.35;1.63;;;9.40;99.90;;;;;;5017902;28;20046;-48
2022/12/29 13:01:55;;;;;;;10.65;1.67;;;9.40;99.90;;;;;;4988464;28;20074;-47
2022/12/29 13:04:45;;;;;;;9.18;0.90;;;9.50;99.90;;;;;;5022692;28;20136;-50
2022/12/29 13:07:33;;;;;;;10.60;0.90;;;9.70;99.90;;;;;;5022805;28;20510;-40
2022/12/29 13:10:35;;;;;;;8.02;1.50;;;10.20;99.90;;;;;;5021144;28;20045;-46
2022/12/29 13:13:03;;;;;;;5.47;1.20;;;10.70;99.90;;;;;;5018592;28;20077;-48
2022/12/29 13:15:48;;;;;;;12.55;0.80;;;10.80;99.90;;;;;;5025998;28;20125;-43
2022/12/29 13:18:46;;;;;;;7.13;1.45;;;10.50;99.90;;;;;;5020333;28;20045;-49
2022/12/29 13:21:20;;;;;;;8.18;1.02;;;10.30;99.90;;;;;;5024274;28;20042;-50
2022/12/29 13:23:50;;;;;;;6.28;0.90;;;10.30;99.90;;;;;;5024826;28;20041;-48
2022/12/29 13:26:31;;;;;;;7.35;1.10;;;10.20;99.90;;;;;;5024497;28;20045;-47
2022/12/29 13:29:16;;;;;;;8.55;1.35;;;10.10;99.90;;;;;;5020934;28;20087;-48
2022/12/29 13:31:41;;;;;;;6.43;1.35;;;10.00;99.90;;;;;;5023033;28;20103;-46
2022/12/29 13:34:41;;;;;;;7.03;1.08;;;9.90;99.90;;;;;;5022225;28;20037;-47
2022/12/29 13:37:13;;;;;;;9.95;1.10;;;9.80;99.90;;;;;;5022346;28;20077;-44
2022/12/29 13:39:48;;;;;;;8.00;1.02;;;9.80;99.90;;;;;;5019679;28;20033;-49
2022/12/29 13:42:16;;;;;;;7.63;0.88;;;9.70;99.90;;;;;;5024067;28;20041;-50
2022/12/29 13:44:57;;;;;;;6.63;1.10;;;9.60;99.90;;;;;;5027146;28;20432;-50
2022/12/29 13:47:46;;;;;;;4.32;0.68;;;9.70;99.90;;;;;;5019361;28;20415;-47
2022/12/29 13:50:19;;;;;;;12.65;1.45;;;9.70;99.90;;;;;;5024652;28;20054;-47